createdAt,value
2023-06-07T00:00:59.132Z,10.18
2023-06-07T00:03:46.532Z,10.12
2023-06-07T00:06:33.879Z,10.02
2023-06-07T00:09:21.130Z,9.97
2023-06-07T00:12:08.168Z,9.89
2023-06-07T00:14:55.449Z,9.63
2023-06-07T00:17:42.713Z,9.81
2023-06-07T00:20:30.405Z,9.72
2023-06-07T00:23:17.363Z,9.70
2023-06-07T00:26:05.293Z,9.64
2023-06-07T00:28:52.268Z,9.58
2023-06-07T00:31:39.481Z,9.52
2023-06-07T00:34:26.703Z,9.46
2023-06-07T00:37:13.945Z,9.43
2023-06-07T00:40:01.158Z,9.37
2023-06-07T00:42:48.449Z,9.30
2023-06-07T00:45:35.628Z,9.24
2023-06-07T00:48:23.340Z,9.19
2023-06-07T00:51:10.964Z,9.16
2023-06-07T00:53:58.533Z,9.12
2023-06-07T00:56:45.608Z,9.08
2023-06-07T00:59:33.156Z,9.05
2023-06-07T01:02:20.525Z,9.00
2023-06-07T01:05:07.978Z,8.95
2023-06-07T01:07:55.010Z,8.89
2023-06-07T01:10:42.587Z,8.89
2023-06-07T01:13:30.956Z,8.85
2023-06-07T01:16:19.237Z,8.81
2023-06-07T01:19:07.006Z,8.77
2023-06-07T01:21:58.617Z,8.72
2023-06-07T01:24:45.663Z,8.68
2023-06-07T01:27:32.835Z,8.66
2023-06-07T01:30:20.387Z,8.61
2023-06-07T01:33:09.063Z,8.33
2023-06-07T01:35:56.174Z,8.55
2023-06-07T01:38:44.689Z,8.53
2023-06-07T01:41:32.823Z,8.49
2023-06-07T01:44:20.848Z,8.45
2023-06-07T01:47:08.689Z,8.42
2023-06-07T01:49:55.751Z,8.38
2023-06-07T01:52:42.871Z,8.36
2023-06-07T01:55:30.137Z,8.31
2023-06-07T01:58:23.404Z,8.30
2023-06-07T02:01:26.908Z,8.27
2023-06-07T02:04:15.741Z,8.25
2023-06-07T02:07:05.759Z,8.25
2023-06-07T02:09:55.298Z,8.23
2023-06-07T02:12:43.684Z,8.19
2023-06-07T02:15:31.161Z,8.21
2023-06-07T02:18:20.545Z,7.99
2023-06-07T02:21:31.277Z,8.16
2023-06-07T02:24:18.749Z,8.15
2023-06-07T02:27:05.977Z,8.14
2023-06-07T02:29:53.326Z,8.13
2023-06-07T02:32:40.365Z,8.13
2023-06-07T02:35:29.335Z,8.11
2023-06-07T02:38:16.381Z,8.11
2023-06-07T02:41:03.761Z,8.06
2023-06-07T02:43:50.726Z,8.08
2023-06-07T02:46:37.948Z,8.08
2023-06-07T02:49:25.090Z,8.07
2023-06-07T02:52:13.592Z,8.05
2023-06-07T02:55:00.736Z,8.05
2023-06-07T02:57:48.043Z,8.03
2023-06-07T03:00:37.218Z,8.05
2023-06-07T03:03:30.256Z,8.05
2023-06-07T03:06:26.874Z,7.92
2023-06-07T03:09:14.184Z,8.06
2023-06-07T03:12:01.322Z,8.05
2023-06-07T03:14:55.069Z,8.05
2023-06-07T03:17:43.017Z,8.06
2023-06-07T03:20:31.687Z,8.09
2023-06-07T03:23:24.177Z,8.11
2023-06-07T03:26:11.843Z,8.12
2023-06-07T03:28:59.430Z,8.13
2023-06-07T03:31:50.707Z,8.15
2023-06-07T03:34:39.232Z,8.16
2023-06-07T03:37:26.705Z,8.17
2023-06-07T03:40:13.896Z,8.20
2023-06-07T03:43:01.478Z,8.20
2023-06-07T03:45:49.235Z,8.22
2023-06-07T03:48:37.279Z,8.25
2023-06-07T03:51:24.267Z,8.28
2023-06-07T03:54:11.693Z,8.33
2023-06-07T03:56:58.927Z,8.37
2023-06-07T03:59:46.473Z,8.40
2023-06-07T04:02:33.942Z,8.44
2023-06-07T04:05:21.145Z,8.47
2023-06-07T04:08:08.324Z,8.51
2023-06-07T04:10:55.584Z,8.55
2023-06-07T04:13:42.802Z,8.58
2023-06-07T04:16:30.554Z,8.63
2023-06-07T04:19:17.687Z,8.65
2023-06-07T04:22:06.466Z,8.66
2023-06-07T04:24:55.243Z,8.73
2023-06-07T04:27:42.382Z,8.76
2023-06-07T04:30:30.483Z,8.78
2023-06-07T04:33:17.697Z,8.82
2023-06-07T04:36:08.818Z,8.85
2023-06-07T04:39:01.552Z,8.87
2023-06-07T04:41:51.946Z,8.90
2023-06-07T04:44:39.240Z,8.96
2023-06-07T04:47:32.562Z,9.01
2023-06-07T04:50:19.797Z,9.06
2023-06-07T04:53:06.907Z,9.13
2023-06-07T04:55:56.409Z,9.17
2023-06-07T04:58:43.879Z,9.23
2023-06-07T05:01:34.327Z,9.28
2023-06-07T05:04:23.293Z,9.33
2023-06-07T05:07:15.264Z,9.38
2023-06-07T05:10:07.073Z,9.31
2023-06-07T05:12:54.721Z,9.48
2023-06-07T05:15:41.957Z,9.53
2023-06-07T05:18:29.643Z,9.57
2023-06-07T05:21:18.474Z,9.63
2023-06-07T05:24:06.753Z,9.68
2023-06-07T05:26:53.806Z,9.71
2023-06-07T05:29:41.064Z,9.76
2023-06-07T05:32:28.739Z,9.81
2023-06-07T05:35:15.920Z,9.81
2023-06-07T05:38:06.203Z,9.94
2023-06-07T05:40:53.230Z,9.99
2023-06-07T05:43:40.281Z,10.04
2023-06-07T05:46:27.428Z,10.09
2023-06-07T05:49:15.336Z,10.13
2023-06-07T05:52:02.603Z,10.19
2023-06-07T05:54:49.606Z,10.26
2023-06-07T05:57:36.926Z,10.31
2023-06-07T06:00:30.911Z,10.06
2023-06-07T06:03:18.102Z,10.41
2023-06-07T06:06:05.048Z,10.47
2023-06-07T06:08:52.447Z,10.51
2023-06-07T06:11:39.530Z,10.57
2023-06-07T06:14:26.677Z,10.62
2023-06-07T06:17:13.838Z,10.69
2023-06-07T06:20:01.211Z,10.73
2023-06-07T06:22:48.456Z,10.78
2023-06-07T06:25:35.652Z,10.83
2023-06-07T06:28:22.678Z,10.89
2023-06-07T06:31:09.905Z,10.95
2023-06-07T06:33:56.927Z,11.00
2023-06-07T06:36:44.002Z,11.05
2023-06-07T06:39:30.953Z,11.10
2023-06-07T06:42:18.183Z,11.15
2023-06-07T06:45:24.634Z,11.20
2023-06-07T06:48:11.915Z,11.25
2023-06-07T06:50:58.936Z,11.31
2023-06-07T06:53:46.029Z,11.35
2023-06-07T06:56:33.070Z,11.39
2023-06-07T06:59:20.203Z,11.44
2023-06-07T07:02:08.527Z,11.51
2023-06-07T07:04:55.871Z,11.56
2023-06-07T07:07:43.080Z,11.60
2023-06-07T07:10:30.556Z,11.65
2023-06-07T07:13:19.293Z,11.67
2023-06-07T07:16:06.499Z,11.72
2023-06-07T07:18:53.729Z,11.76
2023-06-07T07:21:40.900Z,11.78
2023-06-07T07:24:28.488Z,11.81
2023-06-07T07:27:15.724Z,11.85
2023-06-07T07:30:03.185Z,11.88
2023-06-07T07:32:50.607Z,11.92
2023-06-07T07:35:37.913Z,11.94
2023-06-07T07:38:25.040Z,11.97
2023-06-07T07:41:12.139Z,12.01
2023-06-07T07:43:59.315Z,12.04
2023-06-07T07:46:46.447Z,12.09
2023-06-07T07:49:35.932Z,12.13
2023-06-07T07:52:24.305Z,12.20
2023-06-07T07:55:11.419Z,12.23
2023-06-07T07:57:58.495Z,12.23
2023-06-07T08:00:45.775Z,12.33
2023-06-07T08:03:33.138Z,12.36
2023-06-07T08:06:20.325Z,12.38
2023-06-07T08:09:07.452Z,12.40
2023-06-07T08:11:54.513Z,12.40
2023-06-07T08:14:41.661Z,12.39
2023-06-07T08:17:28.833Z,12.47
2023-06-07T08:20:16.174Z,12.48
2023-06-07T08:23:03.630Z,12.53
2023-06-07T08:25:50.701Z,12.58
2023-06-07T08:28:39.174Z,12.63
2023-06-07T08:31:26.599Z,12.66
2023-06-07T08:34:13.851Z,12.71
2023-06-07T08:37:00.870Z,12.75
2023-06-07T08:39:47.994Z,12.79
2023-06-07T08:42:35.218Z,12.83
2023-06-07T08:45:24.266Z,12.87
2023-06-07T08:48:12.979Z,12.93
2023-06-07T08:51:00.949Z,13.00
2023-06-07T08:53:50.602Z,13.04
2023-06-07T08:56:39.109Z,13.02
2023-06-07T08:59:27.137Z,13.04
2023-06-07T09:02:15.168Z,12.97
2023-06-07T09:05:03.717Z,13.18
2023-06-07T09:07:52.213Z,13.18
2023-06-07T09:10:40.537Z,13.27
2023-06-07T09:13:29.683Z,13.33
2023-06-07T09:16:16.844Z,13.39
2023-06-07T09:19:16.415Z,13.46
2023-06-07T09:22:03.593Z,13.37
2023-06-07T09:24:51.983Z,13.49
2023-06-07T09:27:49.665Z,13.60
2023-06-07T09:30:36.829Z,13.66
2023-06-07T09:33:24.010Z,13.77
2023-06-07T09:36:25.469Z,13.84
2023-06-07T09:39:12.664Z,13.87
2023-06-07T09:41:59.866Z,14.01
2023-06-07T09:44:51.322Z,14.10
2023-06-07T09:47:43.278Z,14.18
2023-06-07T09:50:32.319Z,14.31
2023-06-07T09:53:20.067Z,14.46
2023-06-07T09:56:07.212Z,14.71
2023-06-07T09:58:54.251Z,14.95
2023-06-07T10:02:01.297Z,15.17
2023-06-07T10:04:48.393Z,15.28
2023-06-07T10:07:36.839Z,15.39
2023-06-07T10:10:26.162Z,15.53
2023-06-07T10:13:14.846Z,15.71
2023-06-07T10:16:06.733Z,15.87
2023-06-07T10:18:56.805Z,15.96
2023-06-07T10:21:45.072Z,16.05
2023-06-07T10:24:38.031Z,16.15
2023-06-07T10:27:33.039Z,16.32
2023-06-07T10:30:30.702Z,16.44
2023-06-07T10:33:19.601Z,16.51
2023-06-07T10:36:07.597Z,16.58
2023-06-07T10:38:55.876Z,16.69
2023-06-07T10:41:43.845Z,16.80
2023-06-07T10:44:32.091Z,16.91
2023-06-07T10:47:44.976Z,17.07
2023-06-07T10:50:47.390Z,17.22
2023-06-07T10:53:34.504Z,17.39
2023-06-07T10:56:56.578Z,17.55
2023-06-07T10:59:44.089Z,17.52
2023-06-07T11:02:41.349Z,17.68
2023-06-07T11:05:30.573Z,17.81
2023-06-07T11:08:43.653Z,18.03
2023-06-07T11:12:01.765Z,18.20
2023-06-07T11:14:48.795Z,18.31
2023-06-07T11:18:16.270Z,18.52
2023-06-07T11:21:06.396Z,18.67
2023-06-07T11:23:54.824Z,18.84
2023-06-07T11:26:42.098Z,19.06
2023-06-07T11:29:29.308Z,19.23
2023-06-07T11:32:21.813Z,19.34
2023-06-07T11:35:17.367Z,19.40
2023-06-07T11:38:04.484Z,19.46
2023-06-07T11:40:51.491Z,19.46
2023-06-07T11:43:45.435Z,19.42
2023-06-07T11:46:34.811Z,19.51
2023-06-07T11:49:28.034Z,19.61
2023-06-07T11:52:20.766Z,19.71
2023-06-07T11:55:07.848Z,19.81
2023-06-07T11:57:55.392Z,19.89
2023-06-07T12:00:44.162Z,20.00
2023-06-07T12:03:32.094Z,19.96
2023-06-07T12:06:19.424Z,20.01
2023-06-07T12:09:11.171Z,20.00
2023-06-07T12:11:58.164Z,20.10
2023-06-07T12:14:53.022Z,20.19
2023-06-07T12:17:40.733Z,20.21
2023-06-07T12:20:29.854Z,20.22
2023-06-07T12:23:26.706Z,20.24
2023-06-07T12:26:32.660Z,20.29
2023-06-07T12:29:22.387Z,20.38
2023-06-07T12:32:09.628Z,20.37
2023-06-07T12:35:03.556Z,20.32
2023-06-07T12:37:54.007Z,20.24
2023-06-07T12:40:41.320Z,20.20
2023-06-07T12:43:28.605Z,20.21
2023-06-07T12:46:15.828Z,20.28
2023-06-07T12:49:03.358Z,20.23
2023-06-07T12:51:50.923Z,20.13
2023-06-07T12:54:38.041Z,20.26
2023-06-07T12:57:25.838Z,20.33
2023-06-07T13:00:13.093Z,20.52
2023-06-07T13:03:00.327Z,20.78
2023-06-07T13:05:47.634Z,20.94
2023-06-07T13:08:34.764Z,20.73
2023-06-07T13:11:22.309Z,20.55
2023-06-07T13:14:09.563Z,20.40
2023-06-07T13:16:56.858Z,20.04
2023-06-07T13:19:44.006Z,19.98
2023-06-07T13:22:32.214Z,19.82
2023-06-07T13:25:19.885Z,19.72
2023-06-07T13:28:06.973Z,19.62
2023-06-07T13:30:54.065Z,19.55
2023-06-07T13:33:41.304Z,19.43
2023-06-07T13:36:28.869Z,19.31
2023-06-07T13:39:16.108Z,19.16
2023-06-07T13:42:03.377Z,19.14
2023-06-07T13:44:50.746Z,19.15
2023-06-07T13:47:38.553Z,18.97
2023-06-07T13:50:26.193Z,19.03
2023-06-07T13:53:13.379Z,18.98
2023-06-07T13:56:00.503Z,18.94
2023-06-07T13:58:47.568Z,18.86
2023-06-07T14:01:34.958Z,18.79
2023-06-07T14:04:22.185Z,18.72
2023-06-07T14:07:11.778Z,18.61
2023-06-07T14:09:58.851Z,18.49
2023-06-07T14:12:45.938Z,18.42
2023-06-07T14:15:33.326Z,18.33
2023-06-07T14:18:20.415Z,18.22
2023-06-07T14:21:07.706Z,18.18
2023-06-07T14:23:54.821Z,18.12
2023-06-07T14:26:42.030Z,18.06
2023-06-07T14:29:29.040Z,18.05
2023-06-07T14:32:16.143Z,18.02
2023-06-07T14:35:03.460Z,18.03
2023-06-07T14:37:50.908Z,18.01
2023-06-07T14:40:38.125Z,18.00
2023-06-07T14:43:25.438Z,18.01
2023-06-07T14:46:12.798Z,17.98
2023-06-07T14:48:59.879Z,18.01
2023-06-07T14:51:49.727Z,17.98
2023-06-07T14:54:37.064Z,17.97
2023-06-07T14:57:24.828Z,17.86
2023-06-07T14:59:52.107Z,17.93
2023-06-07T15:02:19.229Z,17.93
2023-06-07T15:04:46.389Z,17.74
2023-06-07T15:07:15.185Z,17.94
2023-06-07T15:09:42.661Z,17.97
2023-06-07T15:12:11.517Z,17.97
2023-06-07T15:14:38.601Z,17.96
2023-06-07T15:17:07.077Z,17.96
2023-06-07T15:19:34.156Z,17.95
2023-06-07T15:22:01.348Z,17.95
2023-06-07T15:24:28.522Z,17.94
2023-06-07T15:26:55.806Z,17.91
2023-06-07T15:29:23.183Z,17.67
2023-06-07T15:31:50.335Z,17.71
2023-06-07T15:34:17.683Z,17.58
2023-06-07T15:36:44.737Z,17.48
2023-06-07T15:39:11.934Z,17.37
2023-06-07T15:41:39.769Z,17.30
2023-06-07T15:44:07.093Z,17.22
2023-06-07T15:46:35.213Z,17.21
2023-06-07T15:49:03.932Z,17.19
2023-06-07T15:51:31.184Z,17.17
2023-06-07T15:53:58.321Z,17.11
2023-06-07T15:56:26.121Z,17.18
2023-06-07T15:58:53.564Z,17.20
2023-06-07T16:01:21.918Z,17.31
2023-06-07T16:03:56.187Z,17.38
2023-06-07T16:06:23.796Z,17.47
2023-06-07T16:08:51.517Z,17.51
2023-06-07T16:11:18.536Z,17.51
2023-06-07T16:13:45.946Z,17.49
2023-06-07T16:16:13.918Z,17.40
2023-06-07T16:18:41.186Z,17.29
2023-06-07T16:21:08.483Z,17.17
2023-06-07T16:23:55.608Z,17.07
2023-06-07T16:26:43.005Z,17.07
2023-06-07T16:29:30.429Z,17.18
2023-06-07T16:32:17.988Z,17.36
2023-06-07T16:35:05.300Z,17.49
2023-06-07T16:37:52.434Z,17.50
2023-06-07T16:40:39.528Z,17.50
2023-06-07T16:43:26.665Z,17.43
2023-06-07T16:46:13.890Z,17.35
2023-06-07T16:49:01.050Z,17.37
2023-06-07T16:51:48.216Z,17.49
2023-06-07T16:54:35.402Z,17.53
2023-06-07T16:57:22.718Z,17.51
2023-06-07T17:00:09.789Z,17.30
2023-06-07T17:02:57.065Z,17.43
2023-06-07T17:05:44.354Z,17.42
2023-06-07T17:08:31.433Z,17.43
2023-06-07T17:11:18.558Z,17.43
2023-06-07T17:14:05.775Z,17.43
2023-06-07T17:16:53.142Z,17.44
2023-06-07T17:19:40.154Z,17.38
2023-06-07T17:22:27.544Z,17.29
2023-06-07T17:25:15.642Z,17.27
2023-06-07T17:28:02.868Z,17.30
2023-06-07T17:30:50.687Z,17.35
2023-06-07T17:33:39.024Z,17.29
2023-06-07T17:36:28.037Z,17.27
2023-06-07T17:39:15.181Z,17.26
2023-06-07T17:42:02.901Z,17.05
2023-06-07T17:44:50.053Z,17.10
2023-06-07T17:47:37.273Z,17.04
2023-06-07T17:50:37.051Z,17.02
2023-06-07T17:53:28.473Z,16.95
2023-06-07T17:56:15.638Z,17.00
2023-06-07T17:59:02.765Z,16.97
2023-06-07T18:01:50.097Z,16.89
2023-06-07T18:04:37.224Z,16.77
2023-06-07T18:07:25.006Z,16.64
2023-06-07T18:10:12.123Z,16.53
2023-06-07T18:12:59.210Z,16.46
2023-06-07T18:15:46.411Z,16.41
2023-06-07T18:18:33.698Z,16.37
2023-06-07T18:21:21.244Z,16.30
2023-06-07T18:24:08.325Z,16.20
2023-06-07T18:26:55.421Z,16.12
2023-06-07T18:29:43.774Z,16.09
2023-06-07T18:32:30.844Z,16.06
2023-06-07T18:35:18.292Z,15.97
2023-06-07T18:38:05.432Z,15.92
2023-06-07T18:40:52.793Z,15.90
2023-06-07T18:43:40.930Z,15.84
2023-06-07T18:46:28.540Z,15.78
2023-06-07T18:49:15.837Z,15.75
2023-06-07T18:52:03.361Z,15.71
2023-06-07T18:54:50.507Z,15.63
2023-06-07T18:57:37.980Z,15.54
2023-06-07T19:00:26.165Z,15.48
2023-06-07T19:03:14.653Z,15.42
2023-06-07T19:06:01.792Z,15.36
2023-06-07T19:08:51.843Z,15.28
2023-06-07T19:11:39.014Z,15.22
2023-06-07T19:14:26.119Z,15.10
2023-06-07T19:17:13.181Z,14.97
2023-06-07T19:20:00.655Z,14.83
2023-06-07T19:22:47.942Z,14.79
2023-06-07T19:25:35.497Z,14.76
2023-06-07T19:28:22.524Z,14.76
2023-06-07T19:31:09.725Z,14.73
2023-06-07T19:33:56.758Z,14.61
2023-06-07T19:36:43.888Z,14.52
2023-06-07T19:39:30.930Z,14.43
2023-06-07T19:42:24.706Z,14.35
2023-06-07T19:45:11.767Z,14.32
2023-06-07T19:47:59.020Z,14.29
2023-06-07T19:50:46.161Z,14.20
2023-06-07T19:53:33.476Z,14.10
2023-06-07T19:56:20.709Z,14.02
2023-06-07T19:59:08.005Z,13.91
2023-06-07T20:01:55.586Z,13.89
2023-06-07T20:04:42.899Z,13.86
2023-06-07T20:07:30.069Z,13.81
2023-06-07T20:10:17.231Z,13.77
2023-06-07T20:13:04.202Z,13.72
2023-06-07T20:15:51.370Z,13.76
2023-06-07T20:18:38.318Z,13.75
2023-06-07T20:21:25.480Z,13.73
2023-06-07T20:24:12.462Z,13.67
2023-06-07T20:27:00.469Z,13.50
2023-06-07T20:29:47.533Z,13.55
2023-06-07T20:32:35.043Z,13.51
2023-06-07T20:35:22.162Z,13.50
2023-06-07T20:38:09.483Z,13.45
2023-06-07T20:40:56.445Z,13.36
2023-06-07T20:43:43.793Z,13.27
2023-06-07T20:46:30.817Z,13.26
2023-06-07T20:49:18.150Z,13.19
2023-06-07T20:52:05.091Z,13.20
2023-06-07T20:54:52.317Z,13.21
2023-06-07T20:57:39.359Z,13.19
2023-06-07T21:00:27.218Z,13.04
2023-06-07T21:03:14.327Z,13.15
2023-06-07T21:06:01.756Z,13.11
2023-06-07T21:08:48.825Z,12.96
2023-06-07T21:11:36.493Z,13.01
2023-06-07T21:14:23.501Z,13.02
2023-06-07T21:17:10.760Z,13.00
2023-06-07T21:19:58.147Z,13.00
2023-06-07T21:22:45.272Z,12.95
2023-06-07T21:25:32.416Z,12.92
2023-06-07T21:28:19.601Z,12.91
2023-06-07T21:31:06.752Z,12.90
2023-06-07T21:33:54.007Z,12.88
2023-06-07T21:36:41.230Z,12.86
2023-06-07T21:39:28.322Z,12.84
2023-06-07T21:42:15.439Z,12.80
2023-06-07T21:45:02.926Z,12.76
2023-06-07T21:47:50.451Z,12.72
2023-06-07T21:50:37.791Z,12.76
2023-06-07T21:53:25.054Z,12.59
2023-06-07T21:56:12.213Z,12.82
2023-06-07T21:58:59.239Z,12.86
2023-06-07T22:01:46.858Z,12.90
2023-06-07T22:04:34.246Z,12.95
2023-06-07T22:07:22.111Z,12.96
2023-06-07T22:10:09.434Z,12.95
2023-06-07T22:12:56.692Z,13.00
2023-06-07T22:15:43.818Z,13.01
2023-06-07T22:18:31.000Z,13.02
2023-06-07T22:21:18.771Z,12.99
2023-06-07T22:24:05.987Z,12.99
2023-06-07T22:26:53.134Z,12.97
2023-06-07T22:29:40.712Z,12.96
2023-06-07T22:32:30.776Z,12.96
2023-06-07T22:35:18.231Z,12.96
2023-06-07T22:38:05.417Z,12.96
2023-06-07T22:40:56.684Z,12.97
2023-06-07T22:43:43.964Z,12.99
2023-06-07T22:46:31.169Z,12.96
2023-06-07T22:49:19.626Z,13.00
2023-06-07T22:52:06.807Z,12.97
2023-06-07T22:54:53.968Z,12.95
2023-06-07T22:57:41.141Z,13.02
2023-06-07T23:00:28.924Z,13.07
2023-06-07T23:03:16.775Z,13.11
2023-06-07T23:06:03.995Z,13.14
2023-06-07T23:08:51.176Z,13.19
2023-06-07T23:11:38.308Z,13.20
2023-06-07T23:14:26.152Z,13.15
2023-06-07T23:17:13.335Z,13.24
2023-06-07T23:20:00.438Z,13.26
2023-06-07T23:22:47.660Z,13.29
2023-06-07T23:25:34.886Z,13.29
2023-06-07T23:28:21.994Z,13.33
2023-06-07T23:31:09.509Z,13.33
2023-06-07T23:33:56.542Z,13.33
2023-06-07T23:36:43.866Z,13.33
2023-06-07T23:39:31.122Z,13.32
2023-06-07T23:42:18.213Z,13.31
2023-06-07T23:45:05.508Z,13.30
2023-06-07T23:47:53.358Z,13.23
2023-06-07T23:50:40.762Z,13.25
2023-06-07T23:53:27.995Z,13.30
2023-06-07T23:56:15.228Z,13.29
2023-06-07T23:59:02.475Z,13.21
